sensor_id;sensor_type;location;lat;lon;timestamp;pressure;altitude;pressure_sealevel;temperature;humidity
818;BME280;391;51.052;6.954;2023-04-01T00:01:53;98785.06;;;10.42;86.54
818;BME280;391;51.052;6.954;2023-04-01T00:03:56;98788.50;;;10.55;86.19
818;BME280;391;51.052;6.954;2023-04-01T00:06:00;98778.97;;;10.49;86.17
818;BME280;391;51.052;6.954;2023-04-01T00:08:04;98770.22;;;10.64;85.73
818;BME280;391;51.052;6.954;2023-04-01T00:10:10;98781.50;;;10.74;85.59
818;BME280;391;51.052;6.954;2023-04-01T00:12:15;98783.25;;;10.59;85.21
818;BME280;391;51.052;6.954;2023-04-01T00:14:18;98780.63;;;10.70;85.18
818;BME280;391;51.052;6.954;2023-04-01T00:16:22;98767.59;;;10.75;84.79
818;BME280;391;51.052;6.954;2023-04-01T00:18:25;98775.44;;;10.72;83.90
818;BME280;391;51.052;6.954;2023-04-01T00:20:29;98780.66;;;10.61;84.78
818;BME280;391;51.052;6.954;2023-04-01T00:22:32;98737.31;;;10.37;84.63
818;BME280;391;51.052;6.954;2023-04-01T00:24:37;98783.25;;;10.69;84.76
818;BME280;391;51.052;6.954;2023-04-01T00:26:40;98652.34;;;9.89;84.27
818;BME280;391;51.052;6.954;2023-04-01T00:28:46;98776.34;;;10.55;84.73
818;BME280;391;51.052;6.954;2023-04-01T00:30:49;98790.19;;;10.70;84.66
818;BME280;391;51.052;6.954;2023-04-01T00:32:53;98773.72;;;10.61;84.57
818;BME280;391;51.052;6.954;2023-04-01T00:34:57;98786.75;;;10.61;84.62
818;BME280;391;51.052;6.954;2023-04-01T00:37:01;98777.19;;;10.60;84.70
818;BME280;391;51.052;6.954;2023-04-01T00:39:04;98777.19;;;10.60;84.45
818;BME280;391;51.052;6.954;2023-04-01T00:41:09;98776.38;;;10.49;84.93
818;BME280;391;51.052;6.954;2023-04-01T00:43:19;98775.47;;;10.58;85.49
818;BME280;391;51.052;6.954;2023-04-01T00:45:28;98778.03;;;10.62;84.56
818;BME280;391;51.052;6.954;2023-04-01T00:47:33;98772.00;;;10.56;84.73
818;BME280;391;51.052;6.954;2023-04-01T00:49:39;98767.63;;;10.59;85.12
818;BME280;391;51.052;6.954;2023-04-01T00:51:45;98775.44;;;10.59;84.92
818;BME280;391;51.052;6.954;2023-04-01T00:53:53;98779.78;;;10.60;84.62
818;BME280;391;51.052;6.954;2023-04-01T00:56:01;98782.38;;;10.68;84.23
818;BME280;391;51.052;6.954;2023-04-01T00:58:08;98769.38;;;10.60;84.59
818;BME280;391;51.052;6.954;2023-04-01T01:00:16;98764.13;;;10.70;84.09
818;BME280;391;51.052;6.954;2023-04-01T01:02:22;98766.78;;;10.57;84.33
818;BME280;391;51.052;6.954;2023-04-01T01:04:27;98773.72;;;10.61;85.32
818;BME280;391;51.052;6.954;2023-04-01T01:06:39;98769.41;;;10.51;85.48
818;BME280;391;51.052;6.954;2023-04-01T01:08:59;98761.59;;;10.51;85.15
818;BME280;391;51.052;6.954;2023-04-01T01:11:08;98727.75;;;10.39;85.82
818;BME280;391;51.052;6.954;2023-04-01T01:13:17;98773.75;;;10.55;85.84
818;BME280;391;51.052;6.954;2023-04-01T01:15:25;98777.22;;;10.47;86.55
818;BME280;391;51.052;6.954;2023-04-01T01:17:40;98769.41;;;10.45;86.89
818;BME280;391;51.052;6.954;2023-04-01T01:20:02;98757.28;;;10.35;87.48
818;BME280;391;51.052;6.954;2023-04-01T01:22:38;98759.00;;;10.45;87.50
818;BME280;391;51.052;6.954;2023-04-01T01:24:58;98765.97;;;10.39;87.45
818;BME280;391;51.052;6.954;2023-04-01T01:27:12;98762.50;;;10.35;87.33
818;BME280;391;51.052;6.954;2023-04-01T01:29:39;98743.38;;;10.38;87.22
818;BME280;391;51.052;6.954;2023-04-01T01:31:53;98746.81;;;10.52;86.85
818;BME280;391;51.052;6.954;2023-04-01T01:34:14;98749.44;;;10.44;87.49
818;BME280;391;51.052;6.954;2023-04-01T01:36:22;98754.66;;;10.46;87.67
818;BME280;391;51.052;6.954;2023-04-01T01:38:31;98747.69;;;10.43;87.06
818;BME280;391;51.052;6.954;2023-04-01T01:40:41;98752.91;;;10.48;86.84
818;BME280;391;51.052;6.954;2023-04-01T01:42:48;98755.53;;;10.39;87.23
818;BME280;391;51.052;6.954;2023-04-01T01:44:53;98763.34;;;10.34;86.99
818;BME280;391;51.052;6.954;2023-04-01T01:47:00;98746.00;;;10.39;86.96
818;BME280;391;51.052;6.954;2023-04-01T01:49:05;98759.00;;;10.42;87.05
818;BME280;391;51.052;6.954;2023-04-01T01:51:10;98739.91;;;10.36;87.60
818;BME280;391;51.052;6.954;2023-04-01T01:53:16;98743.41;;;10.36;88.15
818;BME280;391;51.052;6.954;2023-04-01T01:55:27;98750.34;;;10.30;89.01
818;BME280;391;51.052;6.954;2023-04-01T01:57:34;98746.00;;;10.36;89.02
818;BME280;391;51.052;6.954;2023-04-01T01:59:44;98754.69;;;10.35;88.92
818;BME280;391;51.052;6.954;2023-04-01T02:01:58;98755.50;;;10.43;88.97
818;BME280;391;51.052;6.954;2023-04-01T02:04:03;98750.31;;;10.49;88.71
818;BME280;391;51.052;6.954;2023-04-01T02:06:12;98754.72;;;10.19;90.46
818;BME280;391;51.052;6.954;2023-04-01T02:08:21;98770.34;;;10.16;91.12
818;BME280;391;51.052;6.954;2023-04-01T02:10:26;98762.53;;;10.05;90.96
818;BME280;391;51.052;6.954;2023-04-01T02:12:33;98752.09;;;10.11;91.69
818;BME280;391;51.052;6.954;2023-04-01T02:14:42;98749.50;;;10.08;92.11
818;BME280;391;51.052;6.954;2023-04-01T02:16:51;98755.56;;;10.05;92.49
818;BME280;391;51.052;6.954;2023-04-01T02:18:57;98759.91;;;9.96;92.98
818;BME280;391;51.052;6.954;2023-04-01T02:21:03;98755.59;;;9.95;92.99
818;BME280;391;51.052;6.954;2023-04-01T02:23:08;98754.72;;;9.87;92.25
818;BME280;391;51.052;6.954;2023-04-01T02:25:17;98752.13;;;9.91;93.00
818;BME280;391;51.052;6.954;2023-04-01T02:27:21;98746.03;;;9.89;92.61
818;BME280;391;51.052;6.954;2023-04-01T02:29:25;98756.44;;;9.97;93.30
818;BME280;391;51.052;6.954;2023-04-01T02:31:29;98747.78;;;9.89;93.64
818;BME280;391;51.052;6.954;2023-04-01T02:33:33;98751.25;;;9.80;93.03
818;BME280;391;51.052;6.954;2023-04-01T02:35:37;98740.84;;;9.79;93.89
818;BME280;391;51.052;6.954;2023-04-01T02:37:43;98759.06;;;9.68;93.99
818;BME280;391;51.052;6.954;2023-04-01T02:39:47;98757.31;;;9.64;94.46
818;BME280;391;51.052;6.954;2023-04-01T02:41:52;98755.56;;;9.77;94.73
818;BME280;391;51.052;6.954;2023-04-01T02:43:56;98750.41;;;9.89;94.36
818;BME280;391;51.052;6.954;2023-04-01T02:46:00;98745.19;;;9.95;93.94
818;BME280;391;51.052;6.954;2023-04-01T02:48:04;98713.09;;;9.64;94.09
818;BME280;391;51.052;6.954;2023-04-01T02:50:09;98745.16;;;9.58;95.09
818;BME280;391;51.052;6.954;2023-04-01T02:52:13;98752.97;;;9.65;95.29
818;BME280;391;51.052;6.954;2023-04-01T02:54:16;98750.38;;;9.81;95.65
818;BME280;391;51.052;6.954;2023-04-01T02:56:19;98751.25;;;9.85;95.72
818;BME280;391;51.052;6.954;2023-04-01T02:58:24;98749.50;;;10.00;95.68
818;BME280;391;51.052;6.954;2023-04-01T03:00:28;98702.69;;;9.64;95.16
818;BME280;391;51.052;6.954;2023-04-01T03:02:32;98759.06;;;9.94;95.52
818;BME280;391;51.052;6.954;2023-04-01T03:04:35;98753.84;;;9.94;95.58
818;BME280;391;51.052;6.954;2023-04-01T03:06:38;98753.84;;;9.74;96.27
818;BME280;391;51.052;6.954;2023-04-01T03:08:42;98726.09;;;9.52;96.58
818;BME280;391;51.052;6.954;2023-04-01T03:10:46;98747.78;;;9.77;96.69
818;BME280;391;51.052;6.954;2023-04-01T03:12:49;98760.78;;;9.83;97.25
818;BME280;391;51.052;6.954;2023-04-01T03:14:54;98749.53;;;9.88;96.99
818;BME280;391;51.052;6.954;2023-04-01T03:17:12;98755.56;;;10.02;96.21
818;BME280;391;51.052;6.954;2023-04-01T03:19:15;98756.44;;;9.91;95.96
818;BME280;391;51.052;6.954;2023-04-01T03:21:20;98756.47;;;9.85;96.30
818;BME280;391;51.052;6.954;2023-04-01T03:23:24;98757.34;;;9.82;96.62
818;BME280;391;51.052;6.954;2023-04-01T03:25:28;98753.00;;;9.69;96.79
818;BME280;391;51.052;6.954;2023-04-01T03:27:33;98751.25;;;9.71;96.62
818;BME280;391;51.052;6.954;2023-04-01T03:29:37;98756.47;;;9.70;96.28
818;BME280;391;51.052;6.954;2023-04-01T03:31:42;98758.19;;;9.86;96.16
818;BME280;391;51.052;6.954;2023-04-01T03:33:46;98772.94;;;9.84;95.75
818;BME280;391;51.052;6.954;2023-04-01T03:35:49;98765.13;;;9.67;95.47
818;BME280;391;51.052;6.954;2023-04-01T03:37:54;98759.06;;;9.82;96.23
818;BME280;391;51.052;6.954;2023-04-01T03:39:58;98736.50;;;9.81;95.52
818;BME280;391;51.052;6.954;2023-04-01T03:42:01;98772.94;;;9.97;94.94
818;BME280;391;51.052;6.954;2023-04-01T03:44:04;98773.81;;;9.92;94.90
818;BME280;391;51.052;6.954;2023-04-01T03:46:09;98763.38;;;9.71;95.90
818;BME280;391;51.052;6.954;2023-04-01T03:48:14;98770.34;;;9.82;96.02
818;BME280;391;51.052;6.954;2023-04-01T03:50:18;98778.13;;;9.90;96.13
818;BME280;391;51.052;6.954;2023-04-01T03:52:21;98774.69;;;10.01;95.96
818;BME280;391;51.052;6.954;2023-04-01T03:54:25;98783.34;;;10.06;95.00
818;BME280;391;51.052;6.954;2023-04-01T03:56:28;98776.38;;;10.13;95.14
818;BME280;391;51.052;6.954;2023-04-01T03:58:31;98785.06;;;9.97;95.92
818;BME280;391;51.052;6.954;2023-04-01T04:00:36;98789.44;;;9.92;96.35
818;BME280;391;51.052;6.954;2023-04-01T04:02:40;98782.47;;;10.00;96.42
818;BME280;391;51.052;6.954;2023-04-01T04:04:47;98776.41;;;10.22;96.03
818;BME280;391;51.052;6.954;2023-04-01T04:06:51;98772.94;;;10.29;95.27
818;BME280;391;51.052;6.954;2023-04-01T04:08:57;98779.00;;;9.99;96.54
818;BME280;391;51.052;6.954;2023-04-01T04:11:02;98772.03;;;10.09;96.58
818;BME280;391;51.052;6.954;2023-04-01T04:13:05;98781.63;;;10.19;96.48
818;BME280;391;51.052;6.954;2023-04-01T04:15:17;98779.00;;;10.02;96.58
818;BME280;391;51.052;6.954;2023-04-01T04:17:23;98783.34;;;9.94;96.87
818;BME280;391;51.052;6.954;2023-04-01T04:19:31;98772.06;;;10.00;97.03
818;BME280;391;51.052;6.954;2023-04-01T04:21:41;98727.84;;;9.76;97.01
818;BME280;391;51.052;6.954;2023-04-01T04:23:45;98787.69;;;10.07;97.00
818;BME280;391;51.052;6.954;2023-04-01T04:25:56;98768.59;;;9.74;97.25
818;BME280;391;51.052;6.954;2023-04-01T04:28:00;98783.34;;;9.85;98.26
818;BME280;391;51.052;6.954;2023-04-01T04:30:06;98801.56;;;9.85;98.55
818;BME280;391;51.052;6.954;2023-04-01T04:32:11;98779.88;;;9.80;98.43
818;BME280;391;51.052;6.954;2023-04-01T04:34:15;98772.06;;;9.98;98.39
818;BME280;391;51.052;6.954;2023-04-01T04:36:24;98786.81;;;9.99;98.19
818;BME280;391;51.052;6.954;2023-04-01T04:38:34;98785.09;;;9.82;98.62
818;BME280;391;51.052;6.954;2023-04-01T04:40:40;98786.78;;;9.68;98.97
818;BME280;391;51.052;6.954;2023-04-01T04:42:46;98779.88;;;9.82;99.34
818;BME280;391;51.052;6.954;2023-04-01T04:44:55;98778.13;;;9.90;98.86
818;BME280;391;51.052;6.954;2023-04-01T04:46:59;98776.38;;;9.83;98.86
818;BME280;391;51.052;6.954;2023-04-01T04:49:05;98779.88;;;9.98;99.05
818;BME280;391;51.052;6.954;2023-04-01T04:51:15;98776.41;;;9.98;98.50
818;BME280;391;51.052;6.954;2023-04-01T04:53:21;98789.44;;;9.98;98.49
818;BME280;391;51.052;6.954;2023-04-01T04:55:30;98790.28;;;10.01;98.80
818;BME280;391;51.052;6.954;2023-04-01T04:57:55;98798.06;;;9.89;98.40
818;BME280;391;51.052;6.954;2023-04-01T04:59:59;98789.41;;;9.66;100.00
818;BME280;391;51.052;6.954;2023-04-01T05:02:19;98792.91;;;9.82;100.00
818;BME280;391;51.052;6.954;2023-04-01T05:04:28;98797.22;;;9.75;100.00
818;BME280;391;51.052;6.954;2023-04-01T05:06:35;98794.59;;;9.58;100.00
818;BME280;391;51.052;6.954;2023-04-01T05:08:43;98802.41;;;9.60;100.00
818;BME280;391;51.052;6.954;2023-04-01T05:10:54;98791.13;;;9.46;100.00
818;BME280;391;51.052;6.954;2023-04-01T05:12:57;98799.81;;;9.55;100.00
818;BME280;391;51.052;6.954;2023-04-01T05:15:01;98794.59;;;9.58;100.00
818;BME280;391;51.052;6.954;2023-04-01T05:17:08;98779.84;;;9.54;100.00
818;BME280;391;51.052;6.954;2023-04-01T05:19:12;98833.63;;;9.63;100.00
818;BME280;391;51.052;6.954;2023-04-01T05:21:15;98806.75;;;9.72;100.00
818;BME280;391;51.052;6.954;2023-04-01T05:23:20;98759.03;;;9.41;100.00
818;BME280;391;51.052;6.954;2023-04-01T05:25:24;98809.34;;;9.56;100.00
818;BME280;391;51.052;6.954;2023-04-01T05:27:29;98807.59;;;9.58;100.00
818;BME280;391;51.052;6.954;2023-04-01T05:29:32;98800.69;;;9.62;100.00
818;BME280;391;51.052;6.954;2023-04-01T05:31:40;98808.50;;;9.77;100.00
818;BME280;391;51.052;6.954;2023-04-01T05:33:44;98817.19;;;9.76;100.00
818;BME280;391;51.052;6.954;2023-04-01T05:35:47;98815.44;;;9.69;100.00
818;BME280;391;51.052;6.954;2023-04-01T05:37:50;98818.03;;;9.75;100.00
818;BME280;391;51.052;6.954;2023-04-01T05:39:55;98821.50;;;9.74;100.00
818;BME280;391;51.052;6.954;2023-04-01T05:42:00;98822.38;;;10.03;100.00
818;BME280;391;51.052;6.954;2023-04-01T05:44:05;98818.06;;;10.07;100.00
818;BME280;391;51.052;6.954;2023-04-01T05:46:14;98805.91;;;10.07;100.00
818;BME280;391;51.052;6.954;2023-04-01T05:48:27;98824.97;;;9.93;100.00
818;BME280;391;51.052;6.954;2023-04-01T05:50:31;98823.25;;;9.87;100.00
818;BME280;391;51.052;6.954;2023-04-01T05:52:35;98818.03;;;10.02;100.00
818;BME280;391;51.052;6.954;2023-04-01T05:54:39;98815.44;;;9.90;100.00
818;BME280;391;51.052;6.954;2023-04-01T05:56:43;98833.66;;;10.02;100.00
818;BME280;391;51.052;6.954;2023-04-01T05:58:51;98829.34;;;10.01;100.00
818;BME280;391;51.052;6.954;2023-04-01T06:01:03;98830.19;;;9.99;100.00
818;BME280;391;51.052;6.954;2023-04-01T06:03:14;98838.00;;;9.85;100.00
818;BME280;391;51.052;6.954;2023-04-01T06:05:19;98838.00;;;9.82;100.00
818;BME280;391;51.052;6.954;2023-04-01T06:07:23;98835.41;;;9.79;100.00
818;BME280;391;51.052;6.954;2023-04-01T06:09:29;98838.84;;;9.71;100.00
818;BME280;391;51.052;6.954;2023-04-01T06:11:38;98781.56;;;9.39;100.00
818;BME280;391;51.052;6.954;2023-04-01T06:13:58;98834.53;;;9.67;100.00
818;BME280;391;51.052;6.954;2023-04-01T06:16:18;98841.47;;;9.75;100.00
818;BME280;391;51.052;6.954;2023-04-01T06:18:49;98851.00;;;9.87;100.00
818;BME280;391;51.052;6.954;2023-04-01T06:21:01;98854.50;;;9.86;100.00
818;BME280;391;51.052;6.954;2023-04-01T06:23:22;98853.59;;;9.81;100.00
818;BME280;391;51.052;6.954;2023-04-01T06:25:45;98854.44;;;9.74;100.00
818;BME280;391;51.052;6.954;2023-04-01T06:28:04;98858.81;;;9.90;100.00
818;BME280;391;51.052;6.954;2023-04-01T06:30:25;98861.41;;;9.99;100.00
818;BME280;391;51.052;6.954;2023-04-01T06:32:55;98856.22;;;10.06;100.00
818;BME280;391;51.052;6.954;2023-04-01T06:35:40;98855.34;;;10.06;100.00
818;BME280;391;51.052;6.954;2023-04-01T06:38:07;98853.63;;;10.13;100.00
818;BME280;391;51.052;6.954;2023-04-01T06:40:32;98854.50;;;9.98;100.00
818;BME280;391;51.052;6.954;2023-04-01T06:42:56;98857.97;;;9.98;100.00
818;BME280;391;51.052;6.954;2023-04-01T06:45:31;98859.72;;;10.19;100.00
818;BME280;391;51.052;6.954;2023-04-01T06:48:10;98845.81;;;10.03;100.00
818;BME280;391;51.052;6.954;2023-04-01T06:50:38;98864.03;;;10.02;100.00
818;BME280;391;51.052;6.954;2023-04-01T06:53:10;98863.16;;;9.97;100.00
818;BME280;391;51.052;6.954;2023-04-01T06:55:37;98859.69;;;10.02;100.00
818;BME280;391;51.052;6.954;2023-04-01T06:58:19;98867.50;;;10.11;100.00
818;BME280;391;51.052;6.954;2023-04-01T07:00:28;98862.34;;;10.25;100.00
818;BME280;391;51.052;6.954;2023-04-01T07:02:37;98856.28;;;10.20;100.00
818;BME280;391;51.052;6.954;2023-04-01T07:04:46;98870.97;;;9.94;100.00
818;BME280;391;51.052;6.954;2023-04-01T07:06:54;98869.25;;;10.03;100.00
818;BME280;391;51.052;6.954;2023-04-01T07:09:02;98868.38;;;10.04;100.00
818;BME280;391;51.052;6.954;2023-04-01T07:11:31;98878.78;;;10.09;100.00
818;BME280;391;51.052;6.954;2023-04-01T07:14:07;98881.38;;;10.00;100.00
818;BME280;391;51.052;6.954;2023-04-01T07:16:17;98889.19;;;10.06;100.00
818;BME280;391;51.052;6.954;2023-04-01T07:18:30;98863.22;;;10.17;100.00
818;BME280;391;51.052;6.954;2023-04-01T07:20:40;98881.41;;;10.18;100.00
818;BME280;391;51.052;6.954;2023-04-01T07:22:45;98890.91;;;9.84;100.00
818;BME280;391;51.052;6.954;2023-04-01T07:25:02;98886.56;;;9.79;100.00
818;BME280;391;51.052;6.954;2023-04-01T07:27:09;98889.19;;;9.94;100.00
818;BME280;391;51.052;6.954;2023-04-01T07:29:14;98895.25;;;9.90;100.00
818;BME280;391;51.052;6.954;2023-04-01T07:31:38;98898.69;;;9.83;100.00
818;BME280;391;51.052;6.954;2023-04-01T07:33:52;98903.09;;;9.97;100.00
818;BME280;391;51.052;6.954;2023-04-01T07:36:01;98892.66;;;9.91;100.00
818;BME280;391;51.052;6.954;2023-04-01T07:38:17;98900.44;;;9.84;100.00
818;BME280;391;51.052;6.954;2023-04-01T07:40:28;98899.59;;;9.94;100.00
818;BME280;391;51.052;6.954;2023-04-01T07:42:45;98908.28;;;10.00;100.00
818;BME280;391;51.052;6.954;2023-04-01T07:44:59;98911.75;;;9.98;100.00
818;BME280;391;51.052;6.954;2023-04-01T07:47:35;98908.28;;;9.94;100.00
818;BME280;391;51.052;6.954;2023-04-01T07:49:49;98919.56;;;9.95;100.00
818;BME280;391;51.052;6.954;2023-04-01T07:52:01;98913.47;;;9.93;100.00
818;BME280;391;51.052;6.954;2023-04-01T07:54:17;98919.56;;;9.86;100.00
818;BME280;391;51.052;6.954;2023-04-01T07:56:30;98920.41;;;9.85;100.00
818;BME280;391;51.052;6.954;2023-04-01T07:58:43;98923.00;;;9.89;100.00
818;BME280;391;51.052;6.954;2023-04-01T08:01:10;98924.78;;;10.02;100.00
818;BME280;391;51.052;6.954;2023-04-01T08:03:33;98933.47;;;10.01;100.00
818;BME280;391;51.052;6.954;2023-04-01T08:05:47;98917.81;;;10.00;100.00
818;BME280;391;51.052;6.954;2023-04-01T08:08:01;98939.59;;;10.14;100.00
818;BME280;391;51.052;6.954;2023-04-01T08:10:47;98949.09;;;10.10;100.00
818;BME280;391;51.052;6.954;2023-04-01T08:13:16;98939.53;;;10.09;100.00
818;BME280;391;51.052;6.954;2023-04-01T08:15:48;98943.91;;;10.21;100.00
818;BME280;391;51.052;6.954;2023-04-01T08:18:13;98943.03;;;10.13;100.00
818;BME280;391;51.052;6.954;2023-04-01T08:20:27;98931.69;;;9.79;100.00
818;BME280;391;51.052;6.954;2023-04-01T08:22:38;98958.56;;;9.83;100.00
818;BME280;391;51.052;6.954;2023-04-01T08:24:55;98937.75;;;9.87;100.00
818;BME280;391;51.052;6.954;2023-04-01T08:27:06;98962.91;;;9.76;100.00
818;BME280;391;51.052;6.954;2023-04-01T08:29:17;98957.72;;;9.88;100.00
818;BME280;391;51.052;6.954;2023-04-01T08:31:25;98962.06;;;9.94;100.00
818;BME280;391;51.052;6.954;2023-04-01T08:33:33;98962.03;;;9.86;100.00
818;BME280;391;51.052;6.954;2023-04-01T08:35:46;98840.41;;;9.13;100.00
818;BME280;391;51.052;6.954;2023-04-01T08:37:53;98966.41;;;9.86;100.00
818;BME280;391;51.052;6.954;2023-04-01T08:40:16;98977.69;;;9.88;100.00
818;BME280;391;51.052;6.954;2023-04-01T08:42:45;98968.16;;;10.03;100.00
818;BME280;391;51.052;6.954;2023-04-01T08:45:14;98978.53;;;9.84;100.00
818;BME280;391;51.052;6.954;2023-04-01T08:47:46;98967.25;;;9.86;100.00
818;BME280;391;51.052;6.954;2023-04-01T08:50:17;98981.97;;;9.83;100.00
818;BME280;391;51.052;6.954;2023-04-01T08:52:36;98923.81;;;9.56;100.00
818;BME280;391;51.052;6.954;2023-04-01T08:54:48;98913.41;;;9.67;100.00
818;BME280;391;51.052;6.954;2023-04-01T08:57:21;98974.25;;;10.05;100.00
818;BME280;391;51.052;6.954;2023-04-01T09:00:02;98988.13;;;10.00;100.00
818;BME280;391;51.052;6.954;2023-04-01T09:02:46;98986.34;;;9.93;100.00
818;BME280;391;51.052;6.954;2023-04-01T09:05:26;98987.25;;;9.95;100.00
818;BME280;391;51.052;6.954;2023-04-01T09:07:40;98998.56;;;10.04;100.00
818;BME280;391;51.052;6.954;2023-04-01T09:10:01;98998.53;;;9.97;100.00
818;BME280;391;51.052;6.954;2023-04-01T09:12:48;98981.13;;;9.76;100.00
818;BME280;391;51.052;6.954;2023-04-01T09:15:20;99003.69;;;9.85;100.00
818;BME280;391;51.052;6.954;2023-04-01T09:17:46;98961.13;;;9.66;100.00
818;BME280;391;51.052;6.954;2023-04-01T09:20:15;98966.34;;;9.72;100.00
818;BME280;391;51.052;6.954;2023-04-01T09:22:30;99007.19;;;9.99;100.00
818;BME280;391;51.052;6.954;2023-04-01T09:24:58;99005.47;;;10.08;100.00
818;BME280;391;51.052;6.954;2023-04-01T09:27:10;99009.91;;;10.19;100.00
818;BME280;391;51.052;6.954;2023-04-01T09:29:31;99019.50;;;10.33;100.00
818;BME280;391;51.052;6.954;2023-04-01T09:34:53;99026.44;;;10.30;100.00
818;BME280;391;51.052;6.954;2023-04-01T09:37:17;99026.41;;;10.25;100.00
818;BME280;391;51.052;6.954;2023-04-01T09:39:34;99039.44;;;10.27;100.00
818;BME280;391;51.052;6.954;2023-04-01T09:41:57;99020.28;;;10.11;100.00
818;BME280;391;51.052;6.954;2023-04-01T09:44:17;99040.28;;;10.21;100.00
818;BME280;391;51.052;6.954;2023-04-01T09:46:51;99037.59;;;10.09;100.00
818;BME280;391;51.052;6.954;2023-04-01T09:51:52;99054.22;;;10.37;100.00
818;BME280;391;51.052;6.954;2023-04-01T09:54:07;99053.34;;;10.32;100.00
818;BME280;391;51.052;6.954;2023-04-01T09:56:27;99048.13;;;10.35;100.00
818;BME280;391;51.052;6.954;2023-04-01T10:07:28;99071.59;;;10.50;100.00
818;BME280;391;51.052;6.954;2023-04-01T10:10:03;99069.03;;;10.59;100.00
818;BME280;391;51.052;6.954;2023-04-01T10:12:47;99073.28;;;10.28;100.00
818;BME280;391;51.052;6.954;2023-04-01T10:17:51;99068.97;;;10.33;100.00
818;BME280;391;51.052;6.954;2023-04-01T10:20:12;99082.91;;;10.55;100.00
818;BME280;391;51.052;6.954;2023-04-01T10:22:46;99077.69;;;10.53;100.00
818;BME280;391;51.052;6.954;2023-04-01T10:25:15;99057.69;;;10.36;100.00
818;BME280;391;51.052;6.954;2023-04-01T10:27:38;99079.41;;;10.36;100.00
818;BME280;391;51.052;6.954;2023-04-01T10:33:33;99085.44;;;10.29;100.00
818;BME280;391;51.052;6.954;2023-04-01T10:41:53;99095.91;;;10.37;100.00
818;BME280;391;51.052;6.954;2023-04-01T10:44:29;99095.00;;;10.24;100.00
818;BME280;391;51.052;6.954;2023-04-01T10:49:47;99094.97;;;10.21;100.00
818;BME280;391;51.052;6.954;2023-04-01T10:55:30;99088.97;;;10.48;100.00
818;BME280;391;51.052;6.954;2023-04-01T10:58:21;99105.47;;;10.48;100.00
818;BME280;391;51.052;6.954;2023-04-01T11:04:38;99088.91;;;10.24;100.00
818;BME280;391;51.052;6.954;2023-04-01T11:07:23;99101.97;;;10.39;100.00
818;BME280;391;51.052;6.954;2023-04-01T11:13:00;99112.38;;;10.30;100.00
818;BME280;391;51.052;6.954;2023-04-01T11:15:41;99114.97;;;10.37;100.00
818;BME280;391;51.052;6.954;2023-04-01T11:18:20;99118.53;;;10.57;100.00
818;BME280;391;51.052;6.954;2023-04-01T11:23:21;99126.31;;;10.47;100.00
818;BME280;391;51.052;6.954;2023-04-01T11:25:41;99122.94;;;10.75;100.00
818;BME280;391;51.052;6.954;2023-04-01T11:28:27;99134.19;;;10.76;100.00
818;BME280;391;51.052;6.954;2023-04-01T11:30:49;99130.72;;;10.61;100.00
818;BME280;391;51.052;6.954;2023-04-01T11:33:00;99128.97;;;10.56;100.00
818;BME280;391;51.052;6.954;2023-04-01T11:37:59;99132.41;;;10.49;100.00
818;BME280;391;51.052;6.954;2023-04-01T11:40:28;99135.84;;;10.43;100.00
818;BME280;391;51.052;6.954;2023-04-01T11:42:56;99140.22;;;10.49;100.00
818;BME280;391;51.052;6.954;2023-04-01T11:45:44;99135.94;;;10.61;100.00
818;BME280;391;51.052;6.954;2023-04-01T11:48:28;99138.53;;;10.61;100.00
818;BME280;391;51.052;6.954;2023-04-01T11:50:52;99145.50;;;10.73;100.00
818;BME280;391;51.052;6.954;2023-04-01T11:53:27;99143.78;;;10.75;100.00
818;BME280;391;51.052;6.954;2023-04-01T11:55:43;99155.09;;;10.91;100.00
818;BME280;391;51.052;6.954;2023-04-01T11:58:18;99162.91;;;10.83;100.00
818;BME280;391;51.052;6.954;2023-04-01T12:00:53;99152.50;;;10.91;100.00
818;BME280;391;51.052;6.954;2023-04-01T12:03:11;99162.06;;;10.84;100.00
818;BME280;391;51.052;6.954;2023-04-01T12:05:34;99158.56;;;10.87;100.00
818;BME280;391;51.052;6.954;2023-04-01T12:07:53;99170.78;;;11.03;100.00
818;BME280;391;51.052;6.954;2023-04-01T12:10:04;99157.75;;;11.17;100.00
818;BME280;391;51.052;6.954;2023-04-01T12:12:23;99169.91;;;11.10;100.00
818;BME280;391;51.052;6.954;2023-04-01T12:14:37;99166.44;;;11.06;100.00
818;BME280;391;51.052;6.954;2023-04-01T12:16:54;99169.91;;;11.08;100.00
818;BME280;391;51.052;6.954;2023-04-01T12:19:08;99191.66;;;11.21;100.00
818;BME280;391;51.052;6.954;2023-04-01T12:21:24;99180.31;;;11.02;99.42
818;BME280;391;51.052;6.954;2023-04-01T12:23:45;99182.09;;;11.19;99.68
818;BME280;391;51.052;6.954;2023-04-01T12:28:41;99189.03;;;11.27;98.97
818;BME280;391;51.052;6.954;2023-04-01T12:31:03;99192.53;;;11.26;97.85
818;BME280;391;51.052;6.954;2023-04-01T12:33:35;99208.19;;;11.37;98.31
818;BME280;391;51.052;6.954;2023-04-01T12:35:54;99200.31;;;11.11;98.13
818;BME280;391;51.052;6.954;2023-04-01T12:38:13;99224.69;;;11.16;98.81
818;BME280;391;51.052;6.954;2023-04-01T12:40:31;99202.06;;;11.06;98.16
818;BME280;391;51.052;6.954;2023-04-01T12:42:51;99211.63;;;11.04;98.82
818;BME280;391;51.052;6.954;2023-04-01T12:45:17;99174.22;;;10.93;98.23
818;BME280;391;51.052;6.954;2023-04-01T12:47:56;99216.88;;;11.19;97.82
818;BME280;391;51.052;6.954;2023-04-01T12:50:16;99191.66;;;11.30;97.61
818;BME280;391;51.052;6.954;2023-04-01T12:52:26;99191.66;;;11.12;97.19
818;BME280;391;51.052;6.954;2023-04-01T12:57:20;99216.84;;;11.21;97.81
818;BME280;391;51.052;6.954;2023-04-01T12:59:38;99221.25;;;11.32;97.63
818;BME280;391;51.052;6.954;2023-04-01T13:01:56;99219.47;;;11.21;97.55
818;BME280;391;51.052;6.954;2023-04-01T13:06:44;99233.38;;;11.24;98.12
818;BME280;391;51.052;6.954;2023-04-01T13:09:00;99227.31;;;11.27;97.79
818;BME280;391;51.052;6.954;2023-04-01T13:11:09;99229.91;;;11.27;98.49
818;BME280;391;51.052;6.954;2023-04-01T13:13:37;99232.53;;;11.28;98.34
818;BME280;391;51.052;6.954;2023-04-01T13:15:49;99240.34;;;11.19;98.85
818;BME280;391;51.052;6.954;2023-04-01T13:18:06;99239.44;;;11.00;99.74
818;BME280;391;51.052;6.954;2023-04-01T13:20:16;99243.78;;;11.00;100.00
818;BME280;391;51.052;6.954;2023-04-01T13:22:32;99243.78;;;10.97;100.00
818;BME280;391;51.052;6.954;2023-04-01T13:24:43;99246.41;;;11.06;100.00